EDV5057 KLGA-KCAE
Flight info
| Callsign | EDV5057 |
|---|---|
| Flight time | 2h 14m |
| Altitude | 36000 |
| Route | BIGGY Q75 SLOJO |
| Aircraft | CRJ9/M-SDFGIRWY/S |
Departure
| Time | 2026-05-07 23:47 |
|---|---|
| Airport | LaGuardia Airport (KLGA) |
Arrival
| Time | 2026-05-08 02:02 |
|---|---|
| Airport | Columbia Metropolitan Airport (KCAE) |
| Time | Latitude | Longitude | Altitude | Speed | Heading |
|---|---|---|---|---|---|
| 2026-05-07 23:08 | 40.77283 | -73.86593 | 16 ft | 0 kts | 139° |
| 2026-05-07 23:30 | 40.77283 | -73.86594 | 16 ft | 1 kts | 139° |
| 2026-05-07 23:30 | 40.77295 | -73.86608 | 16 ft | 3 kts | 123° |
| 2026-05-07 23:30 | 40.77301 | -73.86630 | 18 ft | 3 kts | 82° |
| 2026-05-07 23:30 | 40.77295 | -73.86652 | 16 ft | 3 kts | 47° |
| 2026-05-07 23:31 | 40.77288 | -73.86660 | 16 ft | 0 kts | 43° |
| 2026-05-07 23:35 | 40.77289 | -73.86660 | 16 ft | 1 kts | 43° |
| 2026-05-07 23:36 | 40.77301 | -73.86645 | 16 ft | 4 kts | 43° |
| 2026-05-07 23:36 | 40.77328 | -73.86614 | 16 ft | 6 kts | 39° |
| 2026-05-07 23:36 | 40.77369 | -73.86569 | 16 ft | 8 kts | 41° |
| 2026-05-07 23:36 | 40.77383 | -73.86554 | 17 ft | 0 kts | 35° |
| 2026-05-07 23:37 | 40.77411 | -73.86549 | 16 ft | 8 kts | 341° |
| 2026-05-07 23:37 | 40.77454 | -73.86621 | 16 ft | 8 kts | 306° |
| 2026-05-07 23:37 | 40.77490 | -73.86616 | 15 ft | 7 kts | 42° |
| 2026-05-07 23:38 | 40.77525 | -73.86620 | 16 ft | 5 kts | 317° |
| 2026-05-07 23:38 | 40.77549 | -73.86661 | 17 ft | 6 kts | 302° |
| 2026-05-07 23:38 | 40.77571 | -73.86707 | 15 ft | 7 kts | 302° |
| 2026-05-07 23:38 | 40.77599 | -73.86765 | 15 ft | 9 kts | 302° |
| 2026-05-07 23:39 | 40.77636 | -73.86842 | 16 ft | 11 kts | 302° |
| 2026-05-07 23:39 | 40.77683 | -73.86941 | 15 ft | 14 kts | 302° |
| 2026-05-07 23:39 | 40.77737 | -73.87053 | 16 ft | 14 kts | 302° |
| 2026-05-07 23:39 | 40.77790 | -73.87165 | 16 ft | 14 kts | 302° |
| 2026-05-07 23:40 | 40.77829 | -73.87268 | 16 ft | 12 kts | 285° |
| 2026-05-07 23:40 | 40.77836 | -73.87375 | 16 ft | 12 kts | 264° |
| 2026-05-07 23:40 | 40.77811 | -73.87480 | 16 ft | 12 kts | 242° |
| 2026-05-07 23:40 | 40.77758 | -73.87566 | 16 ft | 12 kts | 219° |
| 2026-05-07 23:41 | 40.77687 | -73.87627 | 17 ft | 12 kts | 212° |
| 2026-05-07 23:41 | 40.77611 | -73.87689 | 17 ft | 14 kts | 212° |
| 2026-05-07 23:41 | 40.77528 | -73.87758 | 17 ft | 15 kts | 212° |
| 2026-05-07 23:41 | 40.77441 | -73.87829 | 17 ft | 15 kts | 212° |
| 2026-05-07 23:42 | 40.77354 | -73.87901 | 17 ft | 15 kts | 212° |
| 2026-05-07 23:42 | 40.77264 | -73.87976 | 18 ft | 15 kts | 212° |
| 2026-05-07 23:42 | 40.77172 | -73.88051 | 18 ft | 16 kts | 212° |
| 2026-05-07 23:42 | 40.77087 | -73.88122 | 18 ft | 11 kts | 212° |
| 2026-05-07 23:43 | 40.77028 | -73.88175 | 18 ft | 10 kts | 221° |
| 2026-05-07 23:43 | 40.76981 | -73.88235 | 18 ft | 7 kts | 224° |
| 2026-05-07 23:43 | 40.76971 | -73.88248 | 19 ft | 0 kts | 224° |
| 2026-05-07 23:45 | 40.76969 | -73.88251 | 19 ft | 2 kts | 224° |
| 2026-05-07 23:45 | 40.76954 | -73.88269 | 19 ft | 4 kts | 225° |
| 2026-05-07 23:46 | 40.76928 | -73.88327 | 21 ft | 8 kts | 262° |
| 2026-05-07 23:46 | 40.76940 | -73.88367 | 23 ft | 3 kts | 327° |
| 2026-05-07 23:46 | 40.76963 | -73.88369 | 23 ft | 4 kts | 16° |
| 2026-05-07 23:46 | 40.77008 | -73.88336 | 23 ft | 21 kts | 32° |
| 2026-05-07 23:47 | 40.77331 | -73.88071 | 21 ft | 88 kts | 32° |
| 2026-05-07 23:47 | 40.78011 | -73.87507 | 16 ft | 140 kts | 32° |
| 2026-05-07 23:47 | 40.78910 | -73.86749 | 306 ft | 155 kts | 30° |
| 2026-05-07 23:47 | 40.79816 | -73.86001 | 886 ft | 156 kts | 27° |
| 2026-05-07 23:48 | 40.80751 | -73.85252 | 1526 ft | 159 kts | 29° |
| 2026-05-07 23:48 | 40.81698 | -73.84476 | 2144 ft | 160 kts | 28° |
| 2026-05-07 23:48 | 40.82650 | -73.83720 | 2783 ft | 160 kts | 27° |
| 2026-05-07 23:48 | 40.83644 | -73.82931 | 3224 ft | 178 kts | 28° |
| 2026-05-07 23:49 | 40.84740 | -73.82041 | 3775 ft | 191 kts | 28° |
| 2026-05-07 23:49 | 40.85939 | -73.81084 | 4268 ft | 209 kts | 28° |
| 2026-05-07 23:49 | 40.87239 | -73.80071 | 4751 ft | 229 kts | 27° |
| 2026-05-07 23:49 | 40.88718 | -73.78945 | 4955 ft | 261 kts | 27° |
| 2026-05-07 23:50 | 40.90400 | -73.77685 | 5059 ft | 296 kts | 27° |
| 2026-05-07 23:50 | 40.92309 | -73.76267 | 5098 ft | 331 kts | 27° |
| 2026-05-07 23:50 | 40.94344 | -73.74565 | 5098 ft | 365 kts | 37° |
| 2026-05-07 23:50 | 40.96223 | -73.72337 | 5127 ft | 348 kts | 41° |
| 2026-05-07 23:51 | 40.97875 | -73.70193 | 5172 ft | 318 kts | 43° |
| 2026-05-07 23:51 | 40.99356 | -73.68173 | 5159 ft | 298 kts | 44° |
| 2026-05-07 23:51 | 41.00751 | -73.66215 | 5604 ft | 285 kts | 44° |
| 2026-05-07 23:51 | 41.02073 | -73.64317 | 5992 ft | 280 kts | 45° |
| 2026-05-07 23:52 | 41.03403 | -73.62420 | 6345 ft | 281 kts | 44° |
| 2026-05-07 23:52 | 41.04738 | -73.60521 | 6714 ft | 284 kts | 44° |
| 2026-05-07 23:52 | 41.06092 | -73.58603 | 7526 ft | 287 kts | 43° |
| 2026-05-07 23:52 | 41.07484 | -73.56667 | 8296 ft | 292 kts | 43° |
| 2026-05-07 23:53 | 41.08905 | -73.54696 | 9068 ft | 298 kts | 42° |
| 2026-05-07 23:53 | 41.10351 | -73.52690 | 9808 ft | 304 kts | 42° |
| 2026-05-07 23:53 | 41.11854 | -73.50612 | 10211 ft | 322 kts | 42° |
| 2026-05-07 23:53 | 41.13443 | -73.48411 | 10590 ft | 338 kts | 42° |
| 2026-05-07 23:54 | 41.15099 | -73.46105 | 11080 ft | 351 kts | 43° |
| 2026-05-07 23:54 | 41.16794 | -73.43726 | 11723 ft | 358 kts | 42° |
| 2026-05-07 23:54 | 41.18504 | -73.41341 | 12372 ft | 364 kts | 42° |
| 2026-05-07 23:54 | 41.20288 | -73.38854 | 13018 ft | 371 kts | 42° |
| 2026-05-07 23:55 | 41.22088 | -73.36347 | 13534 ft | 377 kts | 42° |
| 2026-05-07 23:55 | 41.23877 | -73.33841 | 14078 ft | 382 kts | 43° |
| 2026-05-07 23:55 | 41.25723 | -73.31255 | 14628 ft | 388 kts | 43° |
| 2026-05-07 23:55 | 41.27619 | -73.28603 | 15198 ft | 394 kts | 43° |
| 2026-05-07 23:56 | 41.29517 | -73.25993 | 15745 ft | 400 kts | 42° |
| 2026-05-07 23:56 | 41.31483 | -73.23312 | 16288 ft | 407 kts | 42° |
| 2026-05-07 23:56 | 41.33483 | -73.20604 | 16721 ft | 417 kts | 42° |
| 2026-05-07 23:56 | 41.35565 | -73.17802 | 16898 ft | 434 kts | 42° |
| 2026-05-07 23:57 | 41.37732 | -73.14903 | 16979 ft | 452 kts | 42° |
| 2026-05-07 23:57 | 41.39956 | -73.11935 | 17021 ft | 448 kts | 42° |
| 2026-05-07 23:57 | 41.42155 | -73.08999 | 17017 ft | 445 kts | 42° |
| 2026-05-07 23:57 | 41.44338 | -73.06086 | 17016 ft | 442 kts | 42° |
| 2026-05-07 23:58 | 41.46502 | -73.03196 | 17013 ft | 439 kts | 42° |
| 2026-05-07 23:58 | 41.48655 | -73.00320 | 17020 ft | 436 kts | 42° |
| 2026-05-07 23:58 | 41.50795 | -72.97459 | 17015 ft | 434 kts | 42° |
| 2026-05-07 23:58 | 41.52918 | -72.94622 | 17011 ft | 432 kts | 42° |
| 2026-05-07 23:59 | 41.55036 | -72.91787 | 17008 ft | 430 kts | 42° |
| 2026-05-07 23:59 | 41.57141 | -72.88971 | 17011 ft | 430 kts | 42° |
| 2026-05-07 23:59 | 41.59256 | -72.86141 | 17015 ft | 431 kts | 42° |
| 2026-05-07 23:59 | 41.60668 | -72.84254 | 17021 ft | 432 kts | 42° |
| 2026-05-08 00:00 | 41.62795 | -72.81412 | 17022 ft | 433 kts | 42° |
| 2026-05-08 00:00 | 41.64936 | -72.78556 | 17014 ft | 437 kts | 41° |
| 2026-05-08 00:00 | 41.67100 | -72.75669 | 17020 ft | 440 kts | 41° |
| 2026-05-08 00:00 | 41.69279 | -72.72765 | 17024 ft | 443 kts | 41° |
| 2026-05-08 00:01 | 41.71469 | -72.69847 | 17031 ft | 446 kts | 41° |
| 2026-05-08 00:01 | 41.73675 | -72.66909 | 17029 ft | 449 kts | 41° |
| 2026-05-08 00:01 | 41.75898 | -72.63953 | 17030 ft | 452 kts | 41° |
| 2026-05-08 00:01 | 41.78134 | -72.60982 | 17028 ft | 454 kts | 41° |
| 2026-05-08 00:02 | 41.80383 | -72.57995 | 17029 ft | 455 kts | 41° |
| 2026-05-08 00:02 | 41.82621 | -72.55022 | 17022 ft | 450 kts | 41° |
| 2026-05-08 00:02 | 41.84833 | -72.52083 | 17021 ft | 445 kts | 41° |
| 2026-05-08 00:02 | 41.87020 | -72.49173 | 17016 ft | 441 kts | 41° |
| 2026-05-08 00:03 | 41.89196 | -72.46280 | 17008 ft | 438 kts | 41° |
| 2026-05-08 00:03 | 41.91350 | -72.43412 | 17011 ft | 433 kts | 41° |
| 2026-05-08 00:03 | 41.93471 | -72.40582 | 17007 ft | 427 kts | 41° |
| 2026-05-08 00:03 | 41.95539 | -72.37818 | 16996 ft | 421 kts | 41° |
| 2026-05-08 00:04 | 41.97601 | -72.35060 | 16988 ft | 416 kts | 41° |
| 2026-05-08 00:04 | 41.99648 | -72.32317 | 16976 ft | 412 kts | 41° |
| 2026-05-08 00:04 | 42.01679 | -72.29595 | 16989 ft | 413 kts | 41° |
| 2026-05-08 00:04 | 42.03725 | -72.26854 | 16993 ft | 418 kts | 41° |
| 2026-05-08 00:05 | 42.05795 | -72.24088 | 16997 ft | 421 kts | 41° |
| 2026-05-08 00:05 | 42.07886 | -72.21297 | 16999 ft | 425 kts | 41° |
| 2026-05-08 00:05 | 42.09990 | -72.18491 | 16999 ft | 428 kts | 41° |
| 2026-05-08 00:05 | 42.12112 | -72.15665 | 17004 ft | 428 kts | 41° |
| 2026-05-08 00:06 | 42.14227 | -72.12855 | 16995 ft | 427 kts | 41° |
| 2026-05-08 00:06 | 42.16421 | -72.10178 | 16979 ft | 420 kts | 29° |
| 2026-05-08 00:06 | 42.19012 | -72.08600 | 16983 ft | 401 kts | 5° |
| 2026-05-08 00:06 | 42.21693 | -72.08438 | 16997 ft | 375 kts | 341° |
| 2026-05-08 00:07 | 42.24029 | -72.09626 | 17020 ft | 346 kts | 315° |
| 2026-05-08 00:07 | 42.25582 | -72.11843 | 17034 ft | 319 kts | 289° |
| 2026-05-08 00:07 | 42.26084 | -72.14644 | 17056 ft | 298 kts | 262° |
| 2026-05-08 00:07 | 42.25425 | -72.17176 | 17060 ft | 293 kts | 233° |
| 2026-05-08 00:08 | 42.23787 | -72.18815 | 17075 ft | 305 kts | 205° |
| 2026-05-08 00:08 | 42.21635 | -72.19169 | 17073 ft | 319 kts | 189° |
| 2026-05-08 00:08 | 42.19424 | -72.19269 | 17045 ft | 317 kts | 192° |
| 2026-05-08 00:08 | 42.17257 | -72.19645 | 17025 ft | 311 kts | 199° |
| 2026-05-08 00:09 | 42.15181 | -72.20411 | 17010 ft | 307 kts | 206° |
| 2026-05-08 00:09 | 42.13208 | -72.21528 | 17234 ft | 307 kts | 213° |
| 2026-05-08 00:09 | 42.11389 | -72.22989 | 18013 ft | 303 kts | 220° |
| 2026-05-08 00:09 | 42.09751 | -72.24760 | 18592 ft | 302 kts | 226° |
| 2026-05-08 00:10 | 42.08281 | -72.26788 | 19137 ft | 303 kts | 231° |
| 2026-05-08 00:10 | 42.06943 | -72.28991 | 19670 ft | 305 kts | 234° |
| 2026-05-08 00:10 | 42.05651 | -72.31261 | 20199 ft | 307 kts | 234° |
| 2026-05-08 00:10 | 42.04350 | -72.33562 | 20702 ft | 309 kts | 234° |
| 2026-05-08 00:11 | 42.03038 | -72.35872 | 21210 ft | 312 kts | 234° |
| 2026-05-08 00:11 | 42.01701 | -72.38186 | 21702 ft | 315 kts | 234° |
| 2026-05-08 00:11 | 42.00335 | -72.40512 | 22179 ft | 318 kts | 234° |
| 2026-05-08 00:11 | 41.98958 | -72.42849 | 22676 ft | 321 kts | 234° |
| 2026-05-08 00:12 | 41.97561 | -72.45209 | 23154 ft | 323 kts | 234° |
| 2026-05-08 00:12 | 41.96159 | -72.47579 | 23578 ft | 325 kts | 234° |
| 2026-05-08 00:12 | 41.94743 | -72.49965 | 23974 ft | 327 kts | 234° |
| 2026-05-08 00:12 | 41.93343 | -72.52326 | 24352 ft | 329 kts | 234° |
| 2026-05-08 00:13 | 41.91915 | -72.54728 | 24729 ft | 330 kts | 234° |
| 2026-05-08 00:13 | 41.90475 | -72.57151 | 25105 ft | 332 kts | 234° |
| 2026-05-08 00:13 | 41.89029 | -72.59583 | 25443 ft | 334 kts | 234° |
| 2026-05-08 00:13 | 41.87579 | -72.62019 | 25804 ft | 335 kts | 234° |
| 2026-05-08 00:14 | 41.86114 | -72.64476 | 26150 ft | 337 kts | 234° |
| 2026-05-08 00:14 | 41.84649 | -72.66934 | 26474 ft | 339 kts | 234° |
| 2026-05-08 00:14 | 41.83174 | -72.69405 | 26796 ft | 340 kts | 234° |
| 2026-05-08 00:14 | 41.81692 | -72.71887 | 27118 ft | 342 kts | 235° |
| 2026-05-08 00:15 | 41.80201 | -72.74383 | 27425 ft | 343 kts | 235° |
| 2026-05-08 00:15 | 41.78706 | -72.76881 | 27737 ft | 345 kts | 235° |
| 2026-05-08 00:15 | 41.77203 | -72.79390 | 28012 ft | 346 kts | 235° |
| 2026-05-08 00:15 | 41.75688 | -72.81919 | 28316 ft | 348 kts | 235° |
| 2026-05-08 00:16 | 41.74191 | -72.84411 | 28963 ft | 339 kts | 235° |
| 2026-05-08 00:16 | 41.72710 | -72.86867 | 29344 ft | 339 kts | 236° |
| 2026-05-08 00:16 | 41.71230 | -72.89331 | 29631 ft | 340 kts | 236° |
| 2026-05-08 00:16 | 41.69745 | -72.91806 | 29902 ft | 342 kts | 236° |
| 2026-05-08 00:17 | 41.68254 | -72.94289 | 30140 ft | 343 kts | 236° |
| 2026-05-08 00:17 | 41.66753 | -72.96781 | 30351 ft | 344 kts | 236° |
| 2026-05-08 00:17 | 41.65248 | -72.99280 | 30563 ft | 345 kts | 236° |
| 2026-05-08 00:17 | 41.63736 | -73.01789 | 30783 ft | 347 kts | 236° |
| 2026-05-08 00:18 | 41.62214 | -73.04310 | 31001 ft | 348 kts | 236° |
| 2026-05-08 00:18 | 41.60710 | -73.06797 | 31203 ft | 349 kts | 236° |
| 2026-05-08 00:18 | 41.59158 | -73.09364 | 31402 ft | 351 kts | 236° |
| 2026-05-08 00:18 | 41.57625 | -73.11899 | 31521 ft | 354 kts | 236° |
| 2026-05-08 00:19 | 41.56090 | -73.14438 | 31687 ft | 356 kts | 236° |
| 2026-05-08 00:19 | 41.54530 | -73.17005 | 31936 ft | 355 kts | 236° |
| 2026-05-08 00:19 | 41.52977 | -73.19562 | 32212 ft | 354 kts | 236° |
| 2026-05-08 00:19 | 41.51428 | -73.22116 | 32461 ft | 353 kts | 236° |
| 2026-05-08 00:20 | 41.49877 | -73.24666 | 32668 ft | 353 kts | 236° |
| 2026-05-08 00:20 | 41.48332 | -73.27210 | 32922 ft | 352 kts | 237° |
| 2026-05-08 00:20 | 41.46785 | -73.29744 | 33160 ft | 352 kts | 236° |
| 2026-05-08 00:20 | 41.45241 | -73.32273 | 33377 ft | 352 kts | 237° |
| 2026-05-08 00:21 | 41.43702 | -73.34802 | 33606 ft | 351 kts | 237° |
| 2026-05-08 00:21 | 41.42167 | -73.37322 | 33851 ft | 350 kts | 237° |
| 2026-05-08 00:21 | 41.40633 | -73.39838 | 34025 ft | 350 kts | 237° |
| 2026-05-08 00:21 | 41.39095 | -73.42354 | 34211 ft | 350 kts | 237° |
| 2026-05-08 00:22 | 41.37553 | -73.44875 | 34367 ft | 350 kts | 237° |
| 2026-05-08 00:22 | 41.36016 | -73.47388 | 34545 ft | 349 kts | 236° |
| 2026-05-08 00:22 | 41.34496 | -73.49865 | 34710 ft | 349 kts | 236° |
| 2026-05-08 00:22 | 41.32944 | -73.52397 | 34875 ft | 349 kts | 236° |
| 2026-05-08 00:23 | 41.31430 | -73.54870 | 35049 ft | 349 kts | 236° |
| 2026-05-08 00:23 | 41.29897 | -73.57367 | 35229 ft | 348 kts | 236° |
| 2026-05-08 00:23 | 41.28363 | -73.59863 | 35400 ft | 348 kts | 236° |
| 2026-05-08 00:23 | 41.26831 | -73.62353 | 35575 ft | 347 kts | 236° |
| 2026-05-08 00:24 | 41.25300 | -73.64840 | 35715 ft | 348 kts | 236° |
| 2026-05-08 00:24 | 41.23762 | -73.67340 | 35785 ft | 350 kts | 236° |
| 2026-05-08 00:24 | 41.20652 | -73.72385 | 35840 ft | 356 kts | 236° |
| 2026-05-08 00:25 | 41.17477 | -73.77524 | 35853 ft | 362 kts | 236° |
| 2026-05-08 00:25 | 41.14258 | -73.82718 | 35864 ft | 366 kts | 236° |
| 2026-05-08 00:26 | 41.11034 | -73.87926 | 35866 ft | 370 kts | 236° |
| 2026-05-08 00:26 | 41.07733 | -73.93245 | 35844 ft | 373 kts | 236° |
| 2026-05-08 00:27 | 41.04433 | -73.98551 | 35855 ft | 377 kts | 236° |
| 2026-05-08 00:27 | 41.01083 | -74.03924 | 35853 ft | 379 kts | 236° |
| 2026-05-08 00:28 | 40.97716 | -74.09310 | 35851 ft | 380 kts | 236° |
| 2026-05-08 00:28 | 40.94356 | -74.14691 | 35844 ft | 379 kts | 236° |
| 2026-05-08 00:29 | 40.90993 | -74.20053 | 35846 ft | 377 kts | 236° |
| 2026-05-08 00:29 | 40.87652 | -74.25384 | 35844 ft | 376 kts | 236° |
| 2026-05-08 00:30 | 40.84306 | -74.30702 | 35855 ft | 376 kts | 236° |
| 2026-05-08 00:30 | 40.80991 | -74.35966 | 35861 ft | 375 kts | 236° |
| 2026-05-08 00:31 | 40.77657 | -74.41249 | 35865 ft | 375 kts | 236° |
| 2026-05-08 00:31 | 40.74321 | -74.46532 | 35863 ft | 374 kts | 236° |
| 2026-05-08 00:32 | 40.70982 | -74.51802 | 35861 ft | 374 kts | 236° |
| 2026-05-08 00:32 | 40.67650 | -74.57059 | 35847 ft | 374 kts | 236° |
| 2026-05-08 00:33 | 40.64308 | -74.62312 | 35843 ft | 373 kts | 236° |
| 2026-05-08 00:33 | 40.60974 | -74.67553 | 35846 ft | 373 kts | 236° |
| 2026-05-08 00:34 | 40.57633 | -74.72796 | 35846 ft | 373 kts | 236° |
| 2026-05-08 00:34 | 40.54288 | -74.78038 | 35847 ft | 373 kts | 236° |
| 2026-05-08 00:35 | 40.50969 | -74.83221 | 35847 ft | 373 kts | 236° |
| 2026-05-08 00:35 | 40.47622 | -74.88442 | 35845 ft | 373 kts | 236° |
| 2026-05-08 00:36 | 40.44276 | -74.93659 | 35850 ft | 373 kts | 236° |
| 2026-05-08 00:36 | 40.40846 | -74.98790 | 35861 ft | 375 kts | 234° |
| 2026-05-08 00:37 | 40.37299 | -75.03807 | 35856 ft | 375 kts | 234° |
| 2026-05-08 00:38 | 40.31974 | -75.11286 | 35858 ft | 375 kts | 234° |
| 2026-05-08 00:38 | 40.28402 | -75.16287 | 35856 ft | 375 kts | 234° |
| 2026-05-08 00:39 | 40.24838 | -75.21269 | 35855 ft | 375 kts | 234° |
| 2026-05-08 00:39 | 40.21267 | -75.26253 | 35873 ft | 375 kts | 234° |
| 2026-05-08 00:40 | 40.17698 | -75.31223 | 35878 ft | 375 kts | 234° |
| 2026-05-08 00:40 | 40.14371 | -75.35854 | 35876 ft | 375 kts | 234° |
| 2026-05-08 00:41 | 40.10788 | -75.40814 | 35879 ft | 375 kts | 234° |
| 2026-05-08 00:41 | 40.07216 | -75.45780 | 35882 ft | 375 kts | 234° |
| 2026-05-08 00:42 | 40.03633 | -75.50737 | 35884 ft | 375 kts | 234° |
| 2026-05-08 00:42 | 40.00078 | -75.55658 | 35883 ft | 375 kts | 234° |
| 2026-05-08 00:43 | 39.96490 | -75.60602 | 35889 ft | 375 kts | 234° |
| 2026-05-08 00:43 | 39.92909 | -75.65536 | 35877 ft | 375 kts | 234° |
| 2026-05-08 00:44 | 39.89451 | -75.70591 | 35880 ft | 372 kts | 237° |
| 2026-05-08 00:44 | 39.86211 | -75.75825 | 35875 ft | 371 kts | 238° |
| 2026-05-08 00:45 | 39.83498 | -75.80162 | 35872 ft | 371 kts | 237° |
| 2026-05-08 00:45 | 39.80246 | -75.85387 | 35872 ft | 371 kts | 237° |
| 2026-05-08 00:46 | 39.76441 | -75.91436 | 35871 ft | 371 kts | 237° |
| 2026-05-08 00:46 | 39.73698 | -75.95798 | 35867 ft | 371 kts | 238° |
| 2026-05-08 00:47 | 39.70427 | -76.00992 | 35866 ft | 372 kts | 237° |
| 2026-05-08 00:47 | 39.67172 | -76.06154 | 35865 ft | 372 kts | 237° |
| 2026-05-08 00:48 | 39.63912 | -76.11368 | 35865 ft | 372 kts | 238° |
| 2026-05-08 00:48 | 39.60642 | -76.16553 | 35868 ft | 372 kts | 237° |
| 2026-05-08 00:49 | 39.57340 | -76.21732 | 35873 ft | 372 kts | 237° |
| 2026-05-08 00:49 | 39.54001 | -76.26880 | 35880 ft | 373 kts | 237° |
| 2026-05-08 00:50 | 39.50653 | -76.32019 | 35883 ft | 373 kts | 237° |
| 2026-05-08 00:50 | 39.47307 | -76.37153 | 35892 ft | 373 kts | 237° |
| 2026-05-08 00:51 | 39.43753 | -76.42037 | 35897 ft | 377 kts | 233° |
| 2026-05-08 00:51 | 39.40050 | -76.46844 | 35897 ft | 377 kts | 233° |
| 2026-05-08 00:52 | 39.36371 | -76.51668 | 35901 ft | 377 kts | 233° |
| 2026-05-08 00:52 | 39.32679 | -76.56486 | 35898 ft | 377 kts | 233° |
| 2026-05-08 00:53 | 39.28987 | -76.61297 | 35882 ft | 377 kts | 233° |
| 2026-05-08 00:53 | 39.25292 | -76.66109 | 35881 ft | 377 kts | 233° |
| 2026-05-08 00:54 | 39.21593 | -76.70909 | 35885 ft | 377 kts | 233° |
| 2026-05-08 00:54 | 39.17918 | -76.75681 | 35884 ft | 377 kts | 233° |
| 2026-05-08 00:55 | 39.14202 | -76.80488 | 35940 ft | 378 kts | 233° |
| 2026-05-08 00:55 | 39.10494 | -76.85288 | 35938 ft | 378 kts | 233° |
| 2026-05-08 00:56 | 39.06777 | -76.90089 | 35912 ft | 378 kts | 233° |
| 2026-05-08 00:56 | 39.03058 | -76.94879 | 35923 ft | 378 kts | 233° |
| 2026-05-08 00:57 | 38.99325 | -76.99676 | 35924 ft | 379 kts | 233° |
| 2026-05-08 00:57 | 38.95631 | -77.04436 | 35924 ft | 378 kts | 233° |
| 2026-05-08 00:58 | 38.91899 | -77.09238 | 35911 ft | 379 kts | 233° |
| 2026-05-08 00:58 | 38.88173 | -77.14019 | 35922 ft | 379 kts | 233° |
| 2026-05-08 00:59 | 38.84438 | -77.18807 | 35920 ft | 379 kts | 233° |
| 2026-05-08 00:59 | 38.80706 | -77.23587 | 35886 ft | 380 kts | 233° |
| 2026-05-08 01:00 | 38.76960 | -77.28368 | 35886 ft | 380 kts | 233° |
| 2026-05-08 01:00 | 38.73226 | -77.33110 | 35888 ft | 381 kts | 232° |
| 2026-05-08 01:01 | 38.69291 | -77.37702 | 35921 ft | 383 kts | 231° |
| 2026-05-08 01:01 | 38.65338 | -77.42271 | 35923 ft | 383 kts | 231° |
| 2026-05-08 01:02 | 38.61370 | -77.46852 | 35920 ft | 383 kts | 231° |
| 2026-05-08 01:02 | 38.57411 | -77.51416 | 35922 ft | 383 kts | 231° |
| 2026-05-08 01:03 | 38.53446 | -77.55969 | 35937 ft | 383 kts | 232° |
| 2026-05-08 01:03 | 38.49492 | -77.60519 | 35940 ft | 383 kts | 232° |
| 2026-05-08 01:04 | 38.45526 | -77.65064 | 35934 ft | 383 kts | 232° |
| 2026-05-08 01:04 | 38.41564 | -77.69600 | 35946 ft | 382 kts | 232° |
| 2026-05-08 01:05 | 38.37600 | -77.74126 | 35951 ft | 382 kts | 232° |
| 2026-05-08 01:05 | 38.33654 | -77.78632 | 35943 ft | 381 kts | 232° |
| 2026-05-08 01:06 | 38.29722 | -77.83115 | 35939 ft | 381 kts | 232° |
| 2026-05-08 01:06 | 38.25767 | -77.87606 | 35934 ft | 380 kts | 232° |
| 2026-05-08 01:07 | 38.21827 | -77.92088 | 35937 ft | 379 kts | 232° |
| 2026-05-08 01:07 | 38.17887 | -77.96560 | 35937 ft | 379 kts | 232° |
| 2026-05-08 01:08 | 38.13961 | -78.01003 | 35933 ft | 378 kts | 232° |
| 2026-05-08 01:08 | 38.10043 | -78.05433 | 35933 ft | 377 kts | 232° |
| 2026-05-08 01:09 | 38.06124 | -78.09853 | 35931 ft | 376 kts | 232° |
| 2026-05-08 01:09 | 38.02234 | -78.14218 | 35941 ft | 376 kts | 232° |
| 2026-05-08 01:10 | 37.98074 | -78.18352 | 35942 ft | 380 kts | 229° |
| 2026-05-08 01:10 | 37.93863 | -78.22396 | 35939 ft | 380 kts | 229° |
| 2026-05-08 01:11 | 37.89643 | -78.26424 | 35938 ft | 379 kts | 229° |
| 2026-05-08 01:11 | 37.85433 | -78.30433 | 35935 ft | 378 kts | 229° |
| 2026-05-08 01:12 | 37.81234 | -78.34424 | 35933 ft | 377 kts | 230° |
| 2026-05-08 01:12 | 37.77061 | -78.38388 | 35931 ft | 374 kts | 230° |
| 2026-05-08 01:13 | 37.72902 | -78.42331 | 35929 ft | 372 kts | 230° |
| 2026-05-08 01:13 | 37.68769 | -78.46246 | 35921 ft | 370 kts | 230° |
| 2026-05-08 01:14 | 37.64686 | -78.50107 | 35934 ft | 368 kts | 230° |
| 2026-05-08 01:14 | 37.60588 | -78.53977 | 35935 ft | 367 kts | 230° |
| 2026-05-08 01:15 | 37.56507 | -78.57824 | 35930 ft | 365 kts | 230° |
| 2026-05-08 01:15 | 37.52442 | -78.61652 | 35929 ft | 364 kts | 230° |
| 2026-05-08 01:16 | 37.48399 | -78.65459 | 35929 ft | 362 kts | 230° |
| 2026-05-08 01:16 | 37.44383 | -78.69229 | 35931 ft | 361 kts | 230° |
| 2026-05-08 01:17 | 37.40369 | -78.72993 | 35933 ft | 360 kts | 230° |
| 2026-05-08 01:17 | 37.36366 | -78.76744 | 35929 ft | 358 kts | 230° |
| 2026-05-08 01:18 | 37.32365 | -78.80487 | 35925 ft | 357 kts | 230° |
| 2026-05-08 01:18 | 37.28383 | -78.84208 | 35927 ft | 356 kts | 231° |
| 2026-05-08 01:19 | 37.24408 | -78.87915 | 35934 ft | 355 kts | 230° |
| 2026-05-08 01:19 | 37.20441 | -78.91601 | 35934 ft | 355 kts | 230° |
| 2026-05-08 01:20 | 37.16478 | -78.95275 | 35941 ft | 354 kts | 230° |
| 2026-05-08 01:20 | 37.12500 | -78.98912 | 35935 ft | 354 kts | 230° |
| 2026-05-08 01:21 | 37.08538 | -79.02557 | 35932 ft | 352 kts | 231° |
| 2026-05-08 01:21 | 37.04620 | -79.06212 | 35929 ft | 351 kts | 231° |
| 2026-05-08 01:22 | 37.00692 | -79.09855 | 35925 ft | 351 kts | 231° |
| 2026-05-08 01:22 | 36.96783 | -79.13464 | 35936 ft | 351 kts | 231° |
| 2026-05-08 01:23 | 36.92859 | -79.17089 | 35918 ft | 350 kts | 231° |
| 2026-05-08 01:23 | 36.88934 | -79.20710 | 35933 ft | 350 kts | 231° |
| 2026-05-08 01:24 | 36.85019 | -79.24317 | 35936 ft | 349 kts | 231° |
| 2026-05-08 01:24 | 36.81129 | -79.27897 | 35937 ft | 349 kts | 231° |
| 2026-05-08 01:25 | 36.77217 | -79.31490 | 35945 ft | 348 kts | 231° |
| 2026-05-08 01:25 | 36.73310 | -79.35076 | 35943 ft | 348 kts | 230° |
| 2026-05-08 01:26 | 36.69407 | -79.38657 | 35947 ft | 349 kts | 230° |
| 2026-05-08 01:26 | 36.65473 | -79.42264 | 35946 ft | 351 kts | 230° |
| 2026-05-08 01:27 | 36.61505 | -79.45899 | 35964 ft | 356 kts | 230° |
| 2026-05-08 01:27 | 36.57492 | -79.49569 | 35960 ft | 360 kts | 230° |
| 2026-05-08 01:28 | 36.53422 | -79.53283 | 35950 ft | 364 kts | 230° |
| 2026-05-08 01:28 | 36.49343 | -79.56999 | 35947 ft | 368 kts | 230° |
| 2026-05-08 01:29 | 36.45199 | -79.60772 | 35942 ft | 371 kts | 230° |
| 2026-05-08 01:29 | 36.41019 | -79.64569 | 35946 ft | 373 kts | 230° |
| 2026-05-08 01:30 | 36.36817 | -79.68382 | 35958 ft | 375 kts | 229° |
| 2026-05-08 01:30 | 36.32582 | -79.72220 | 35955 ft | 377 kts | 229° |
| 2026-05-08 01:31 | 36.28331 | -79.76063 | 35949 ft | 379 kts | 229° |
| 2026-05-08 01:31 | 36.24782 | -79.79243 | 35938 ft | 378 kts | 229° |
| 2026-05-08 01:32 | 36.19852 | -79.83665 | 35939 ft | 376 kts | 229° |
| 2026-05-08 01:32 | 36.15621 | -79.87455 | 35942 ft | 374 kts | 229° |
| 2026-05-08 01:33 | 36.12121 | -79.90597 | 35941 ft | 372 kts | 229° |
| 2026-05-08 01:33 | 36.07923 | -79.94342 | 35943 ft | 371 kts | 229° |
| 2026-05-08 01:33 | 36.05702 | -79.96056 | 35946 ft | 383 kts | 222° |
| 2026-05-08 01:34 | 36.03303 | -79.97552 | 35944 ft | 386 kts | 221° |
| 2026-05-08 01:34 | 35.98596 | -80.00631 | 35940 ft | 386 kts | 220° |
| 2026-05-08 01:35 | 35.93480 | -80.03086 | 35942 ft | 397 kts | 215° |
| 2026-05-08 01:35 | 35.88331 | -80.05477 | 35946 ft | 394 kts | 217° |
| 2026-05-08 01:36 | 35.83278 | -80.07967 | 35955 ft | 394 kts | 217° |
| 2026-05-08 01:36 | 35.78162 | -80.10487 | 35949 ft | 393 kts | 217° |
| 2026-05-08 01:37 | 35.73110 | -80.12972 | 35953 ft | 394 kts | 217° |
| 2026-05-08 01:37 | 35.68019 | -80.15474 | 35946 ft | 393 kts | 217° |
| 2026-05-08 01:38 | 35.62932 | -80.17970 | 35949 ft | 393 kts | 217° |
| 2026-05-08 01:38 | 35.57852 | -80.20460 | 35976 ft | 393 kts | 217° |
| 2026-05-08 01:39 | 35.52765 | -80.22949 | 35981 ft | 393 kts | 216° |
| 2026-05-08 01:39 | 35.47689 | -80.25431 | 35993 ft | 393 kts | 216° |
| 2026-05-08 01:39 | 35.45146 | -80.26676 | 35797 ft | 396 kts | 216° |
| 2026-05-08 01:40 | 35.42613 | -80.27909 | 35287 ft | 388 kts | 216° |
| 2026-05-08 01:40 | 35.40128 | -80.29114 | 34778 ft | 380 kts | 216° |
| 2026-05-08 01:40 | 35.37692 | -80.30297 | 34290 ft | 373 kts | 216° |
| 2026-05-08 01:40 | 35.35300 | -80.31455 | 33798 ft | 367 kts | 216° |
| 2026-05-08 01:41 | 35.32940 | -80.32597 | 33267 ft | 361 kts | 217° |
| 2026-05-08 01:41 | 35.30600 | -80.33733 | 32753 ft | 362 kts | 217° |
| 2026-05-08 01:41 | 35.28254 | -80.34872 | 32257 ft | 364 kts | 217° |
| 2026-05-08 01:41 | 35.25891 | -80.36022 | 31766 ft | 366 kts | 217° |
| 2026-05-08 01:42 | 35.23520 | -80.37173 | 31282 ft | 368 kts | 217° |
| 2026-05-08 01:42 | 35.21146 | -80.38327 | 30808 ft | 369 kts | 217° |
| 2026-05-08 01:42 | 35.18745 | -80.39491 | 30330 ft | 371 kts | 217° |
| 2026-05-08 01:42 | 35.16348 | -80.40654 | 29844 ft | 372 kts | 217° |
| 2026-05-08 01:43 | 35.13935 | -80.41828 | 29311 ft | 373 kts | 217° |
| 2026-05-08 01:43 | 35.11547 | -80.42994 | 28785 ft | 375 kts | 217° |
| 2026-05-08 01:43 | 35.09119 | -80.44175 | 28268 ft | 376 kts | 216° |
| 2026-05-08 01:43 | 35.06682 | -80.45359 | 27749 ft | 378 kts | 216° |
| 2026-05-08 01:44 | 35.04239 | -80.46542 | 27244 ft | 379 kts | 216° |
| 2026-05-08 01:44 | 35.01788 | -80.47728 | 26739 ft | 380 kts | 215° |
| 2026-05-08 01:44 | 34.99327 | -80.48919 | 26241 ft | 381 kts | 215° |
| 2026-05-08 01:44 | 34.96856 | -80.50114 | 25753 ft | 382 kts | 214° |
| 2026-05-08 01:45 | 34.94379 | -80.51315 | 25260 ft | 383 kts | 214° |
| 2026-05-08 01:45 | 34.91912 | -80.52531 | 24794 ft | 384 kts | 214° |
| 2026-05-08 01:45 | 34.89420 | -80.53741 | 24347 ft | 385 kts | 214° |
| 2026-05-08 01:45 | 34.86940 | -80.54957 | 23876 ft | 381 kts | 214° |
| 2026-05-08 01:46 | 34.84537 | -80.56115 | 23399 ft | 370 kts | 213° |
| 2026-05-08 01:46 | 34.82176 | -80.57237 | 22856 ft | 360 kts | 214° |
| 2026-05-08 01:46 | 34.79846 | -80.58345 | 22328 ft | 351 kts | 214° |
| 2026-05-08 01:46 | 34.77599 | -80.59421 | 21835 ft | 343 kts | 214° |
| 2026-05-08 01:47 | 34.75402 | -80.60478 | 21355 ft | 336 kts | 214° |
| 2026-05-08 01:47 | 34.73274 | -80.61502 | 20902 ft | 332 kts | 214° |
| 2026-05-08 01:47 | 34.71129 | -80.62540 | 20463 ft | 330 kts | 214° |
| 2026-05-08 01:48 | 34.66865 | -80.64589 | 19625 ft | 328 kts | 214° |
| 2026-05-08 01:48 | 34.64745 | -80.65589 | 19205 ft | 329 kts | 212° |
| 2026-05-08 01:48 | 34.62555 | -80.66444 | 18777 ft | 333 kts | 209° |
| 2026-05-08 01:48 | 34.60304 | -80.67167 | 18369 ft | 335 kts | 207° |
| 2026-05-08 01:49 | 34.58040 | -80.67855 | 17903 ft | 334 kts | 207° |
| 2026-05-08 01:49 | 34.55797 | -80.68563 | 17425 ft | 333 kts | 207° |
| 2026-05-08 01:49 | 34.53558 | -80.69286 | 16966 ft | 332 kts | 207° |
| 2026-05-08 01:49 | 34.51330 | -80.70003 | 16486 ft | 332 kts | 206° |
| 2026-05-08 01:50 | 34.49097 | -80.70718 | 16038 ft | 331 kts | 206° |
| 2026-05-08 01:50 | 34.46872 | -80.71432 | 15616 ft | 331 kts | 205° |
| 2026-05-08 01:50 | 34.44679 | -80.72138 | 15183 ft | 330 kts | 205° |
| 2026-05-08 01:50 | 34.42452 | -80.72851 | 14758 ft | 330 kts | 205° |
| 2026-05-08 01:51 | 34.40238 | -80.73563 | 14332 ft | 329 kts | 204° |
| 2026-05-08 01:51 | 34.38025 | -80.74270 | 13916 ft | 328 kts | 204° |
| 2026-05-08 01:51 | 34.35820 | -80.74973 | 13456 ft | 327 kts | 203° |
| 2026-05-08 01:51 | 34.33625 | -80.75673 | 12989 ft | 326 kts | 203° |
| 2026-05-08 01:52 | 34.31435 | -80.76373 | 12529 ft | 324 kts | 203° |
| 2026-05-08 01:52 | 34.29268 | -80.77062 | 12086 ft | 321 kts | 203° |
| 2026-05-08 01:52 | 34.27121 | -80.77742 | 11643 ft | 317 kts | 202° |
| 2026-05-08 01:52 | 34.25003 | -80.78416 | 11213 ft | 313 kts | 202° |
| 2026-05-08 01:53 | 34.22913 | -80.79082 | 10785 ft | 309 kts | 202° |
| 2026-05-08 01:53 | 34.20869 | -80.79729 | 10374 ft | 304 kts | 202° |
| 2026-05-08 01:53 | 34.18858 | -80.80367 | 9977 ft | 294 kts | 202° |
| 2026-05-08 01:53 | 34.16904 | -80.80987 | 9541 ft | 286 kts | 202° |
| 2026-05-08 01:54 | 34.15006 | -80.81587 | 9081 ft | 276 kts | 202° |
| 2026-05-08 01:54 | 34.13162 | -80.82175 | 8677 ft | 273 kts | 202° |
| 2026-05-08 01:54 | 34.11326 | -80.82762 | 8288 ft | 271 kts | 202° |
| 2026-05-08 01:54 | 34.09513 | -80.83336 | 7907 ft | 270 kts | 201° |
| 2026-05-08 01:55 | 34.07703 | -80.83912 | 7535 ft | 268 kts | 201° |
| 2026-05-08 01:55 | 34.05907 | -80.84480 | 7179 ft | 266 kts | 201° |
| 2026-05-08 01:55 | 34.04120 | -80.85044 | 6828 ft | 264 kts | 201° |
| 2026-05-08 01:55 | 34.02351 | -80.85602 | 6481 ft | 262 kts | 201° |
| 2026-05-08 01:56 | 34.00587 | -80.86151 | 6141 ft | 260 kts | 201° |
| 2026-05-08 01:56 | 33.98849 | -80.86689 | 5781 ft | 254 kts | 201° |
| 2026-05-08 01:56 | 33.97133 | -80.87220 | 5116 ft | 258 kts | 201° |
| 2026-05-08 01:56 | 33.95375 | -80.87767 | 4401 ft | 264 kts | 200° |
| 2026-05-08 01:57 | 33.93647 | -80.88436 | 3853 ft | 254 kts | 214° |
| 2026-05-08 01:57 | 33.92509 | -80.89860 | 3384 ft | 233 kts | 252° |
| 2026-05-08 01:57 | 33.92002 | -80.91674 | 2979 ft | 227 kts | 257° |
| 2026-05-08 01:57 | 33.91557 | -80.93469 | 2654 ft | 218 kts | 258° |
| 2026-05-08 01:58 | 33.91178 | -80.95158 | 2459 ft | 202 kts | 260° |
| 2026-05-08 01:58 | 33.90838 | -80.96770 | 2268 ft | 193 kts | 262° |
| 2026-05-08 01:58 | 33.90735 | -80.98329 | 2036 ft | 183 kts | 287° |
| 2026-05-08 01:58 | 33.91164 | -80.99725 | 1881 ft | 171 kts | 284° |
| 2026-05-08 01:59 | 33.90964 | -81.01033 | 1799 ft | 154 kts | 248° |
| 2026-05-08 01:59 | 33.90712 | -81.02181 | 1681 ft | 137 kts | 283° |
| 2026-05-08 01:59 | 33.91294 | -81.02964 | 1686 ft | 125 kts | 329° |
| 2026-05-08 01:59 | 33.91927 | -81.03572 | 1580 ft | 113 kts | 300° |
| 2026-05-08 02:00 | 33.92392 | -81.04386 | 1704 ft | 127 kts | 304° |
| 2026-05-08 02:00 | 33.92781 | -81.05437 | 1652 ft | 153 kts | 278° |
| 2026-05-08 02:00 | 33.92903 | -81.06667 | 1741 ft | 135 kts | 281° |
| 2026-05-08 02:00 | 33.93106 | -81.07767 | 1727 ft | 137 kts | 285° |
| 2026-05-08 02:01 | 33.93307 | -81.08841 | 1223 ft | 127 kts | 284° |
| 2026-05-08 02:01 | 33.93540 | -81.09875 | 621 ft | 129 kts | 285° |
| 2026-05-08 02:01 | 33.93788 | -81.10894 | 270 ft | 128 kts | 283° |
| 2026-05-08 02:01 | 33.93998 | -81.11860 | 221 ft | 104 kts | 284° |
| 2026-05-08 02:02 | 33.94153 | -81.12579 | 226 ft | 69 kts | 284° |
| 2026-05-08 02:02 | 33.94249 | -81.12973 | 231 ft | 30 kts | 298° |
| 2026-05-08 02:02 | 33.94319 | -81.13094 | 232 ft | 14 kts | 310° |
| 2026-05-08 02:02 | 33.94378 | -81.13169 | 231 ft | 8 kts | 315° |
| 2026-05-08 02:03 | 33.94385 | -81.13177 | 231 ft | 0 kts | 315° |
| 2026-05-08 02:03 | 33.94389 | -81.13182 | 231 ft | 2 kts | 315° |
| 2026-05-08 02:03 | 33.94415 | -81.13210 | 252 ft | 8 kts | 327° |
| 2026-05-08 02:03 | 33.94471 | -81.13201 | 232 ft | 10 kts | 52° |
| 2026-05-08 02:04 | 33.94470 | -81.13114 | 233 ft | 12 kts | 104° |
| 2026-05-08 02:04 | 33.94445 | -81.13000 | 231 ft | 15 kts | 104° |
| 2026-05-08 02:04 | 33.94416 | -81.12867 | 230 ft | 17 kts | 105° |
| 2026-05-08 02:04 | 33.94399 | -81.12754 | 229 ft | 11 kts | 71° |
| 2026-05-08 02:05 | 33.94458 | -81.12735 | 229 ft | 10 kts | 355° |
| 2026-05-08 02:05 | 33.94526 | -81.12728 | 229 ft | 7 kts | 26° |
| 2026-05-08 02:05 | 33.94541 | -81.12714 | 229 ft | 3 kts | 47° |
| 2026-05-08 02:05 | 33.94548 | -81.12689 | 231 ft | 2 kts | 98° |
| 2026-05-08 02:06 | 33.94541 | -81.12669 | 229 ft | 3 kts | 117° |
| 2026-05-08 02:06 | 33.94533 | -81.12651 | 229 ft | 1 kts | 116° |
| 2026-05-08 02:06 | 33.94529 | -81.12641 | 229 ft | 2 kts | 116° |
| 2026-05-08 02:06 | 33.94528 | -81.12639 | 229 ft | 0 kts | 116° |
| 2026-05-08 02:11 | 33.94528 | -81.12640 | 229 ft | 0 kts | 116° |